createdAt,value
2019-05-16T00:00:10.477Z,76.57
2019-05-16T00:02:39.009Z,75.54
2019-05-16T00:05:08.682Z,76.00
2019-05-16T00:07:38.942Z,75.59
2019-05-16T00:10:08.693Z,75.55
2019-05-16T00:12:39.831Z,75.69
2019-05-16T00:15:09.038Z,76.49
2019-05-16T00:17:38.570Z,75.73
2019-05-16T00:20:09.392Z,75.60
2019-05-16T00:22:39.388Z,75.85
2019-05-16T00:25:08.901Z,75.48
2019-05-16T00:27:38.693Z,75.36
2019-05-16T00:30:08.981Z,75.41
2019-05-16T00:32:38.963Z,75.25
2019-05-16T00:35:09.194Z,75.14
2019-05-16T00:37:39.033Z,75.46
2019-05-16T00:40:08.324Z,74.62
2019-05-16T00:42:39.195Z,74.96
2019-05-16T00:45:09.155Z,75.89
2019-05-16T00:47:38.960Z,75.79
2019-05-16T00:50:08.878Z,76.60
2019-05-16T00:52:39.343Z,76.08
2019-05-16T00:55:08.499Z,75.77
2019-05-16T00:57:38.988Z,75.69
2019-05-16T01:00:10.932Z,75.93
2019-05-16T01:02:38.695Z,76.08
2019-05-16T01:05:08.676Z,75.98
2019-05-16T01:07:39.108Z,76.67
2019-05-16T01:10:09.165Z,76.68
2019-05-16T01:12:39.112Z,76.22
2019-05-16T01:15:08.953Z,76.32
2019-05-16T01:17:39.085Z,76.26
2019-05-16T01:20:08.691Z,76.61
2019-05-16T01:22:38.586Z,76.30
2019-05-16T01:25:09.401Z,76.98
2019-05-16T01:27:38.689Z,77.01
2019-05-16T01:30:09.309Z,77.64
2019-05-16T01:32:39.121Z,77.92
2019-05-16T01:35:08.661Z,78.07
2019-05-16T01:37:38.361Z,78.16
2019-05-16T01:40:08.490Z,78.15
2019-05-16T01:42:38.654Z,78.15
2019-05-16T01:45:08.428Z,77.49
2019-05-16T01:47:39.321Z,76.78
2019-05-16T01:50:08.845Z,76.25
2019-05-16T01:52:38.249Z,75.63
2019-05-16T01:55:08.296Z,76.53
2019-05-16T01:57:39.097Z,77.40
2019-05-16T02:00:08.596Z,77.45
2019-05-16T02:02:38.496Z,76.73
2019-05-16T02:05:08.574Z,76.04
2019-05-16T02:07:38.788Z,76.04
2019-05-16T02:10:09.820Z,76.53
2019-05-16T02:12:38.729Z,77.12
2019-05-16T02:15:08.076Z,77.53
2019-05-16T02:17:38.439Z,77.47
2019-05-16T02:20:08.734Z,77.28
2019-05-16T02:22:39.021Z,77.14
2019-05-16T02:25:08.202Z,77.71
2019-05-16T02:27:40.586Z,77.88
2019-05-16T02:30:07.620Z,77.21
2019-05-16T02:32:36.114Z,76.84
2019-05-16T02:35:06.381Z,76.25
2019-05-16T02:37:35.376Z,76.71
2019-05-16T02:40:12.136Z,77.11
2019-05-16T02:42:42.082Z,76.55
2019-05-16T02:45:11.183Z,76.82
2019-05-16T02:47:42.439Z,76.64
2019-05-16T02:50:12.279Z,75.69
2019-05-16T02:52:41.553Z,75.33
2019-05-16T02:55:11.926Z,75.14
2019-05-16T02:57:41.484Z,75.35
2019-05-16T03:00:12.319Z,75.64
2019-05-16T03:02:42.002Z,74.92
2019-05-16T03:05:12.351Z,75.69
2019-05-16T03:07:47.070Z,75.95
2019-05-16T03:10:15.189Z,75.71
2019-05-16T03:12:44.016Z,75.84
2019-05-16T03:15:13.232Z,76.21
2019-05-16T03:17:44.440Z,76.73
2019-05-16T03:20:13.670Z,76.33
2019-05-16T03:22:43.013Z,76.05
2019-05-16T03:25:11.977Z,76.10
2019-05-16T03:27:41.574Z,76.21
2019-05-16T03:30:15.850Z,76.65
2019-05-16T03:32:45.147Z,76.70
2019-05-16T03:35:15.681Z,76.95
2019-05-16T03:37:55.099Z,76.11
2019-05-16T03:40:17.191Z,75.97
2019-05-16T03:42:45.692Z,75.87
2019-05-16T03:45:14.339Z,76.30
2019-05-16T03:47:43.116Z,75.33
2019-05-16T03:50:13.334Z,75.01
2019-05-16T03:52:43.501Z,75.32
2019-05-16T03:55:12.411Z,75.58
2019-05-16T03:57:41.788Z,74.78
2019-05-16T04:00:11.825Z,75.29
2019-05-16T04:02:44.732Z,75.09
2019-05-16T04:05:12.160Z,74.99
2019-05-16T04:07:41.881Z,74.56
2019-05-16T04:10:11.479Z,76.23
2019-05-16T04:12:42.017Z,75.55
2019-05-16T04:15:11.629Z,74.82
2019-05-16T04:17:41.330Z,75.57
2019-05-16T04:20:11.837Z,74.55
2019-05-16T04:22:40.958Z,74.20
2019-05-16T04:25:11.240Z,74.28
2019-05-16T04:27:41.604Z,74.07
2019-05-16T04:30:11.723Z,73.65
2019-05-16T04:32:41.988Z,72.90
2019-05-16T04:35:11.612Z,72.84
2019-05-16T04:37:42.276Z,73.08
2019-05-16T04:40:12.115Z,72.75
2019-05-16T04:42:41.903Z,72.63
2019-05-16T04:45:11.835Z,72.73
2019-05-16T04:47:41.579Z,72.97
2019-05-16T04:56:21.290Z,73.16
2019-05-16T04:58:51.081Z,73.14
2019-05-16T05:01:21.211Z,73.03
2019-05-16T05:04:01.943Z,72.76
2019-05-16T05:06:20.796Z,73.11
2019-05-16T05:08:57.941Z,73.21
2019-05-16T05:11:21.599Z,73.66
2019-05-16T05:13:50.633Z,74.34
2019-05-16T05:16:20.343Z,73.84
2019-05-16T05:18:51.557Z,73.56
2019-05-16T05:21:20.936Z,73.68
2019-05-16T05:23:50.854Z,73.63
2019-05-16T05:26:20.075Z,74.33
2019-05-16T05:28:50.593Z,73.74
2019-05-16T05:31:24.392Z,73.22
2019-05-16T05:33:50.693Z,72.51
2019-05-16T05:36:21.104Z,72.49
2019-05-16T05:39:06.198Z,72.41
2019-05-16T05:41:19.979Z,72.54
2019-05-16T05:43:50.395Z,72.67
2019-05-16T05:46:20.485Z,72.46
2019-05-16T05:48:50.520Z,71.98
2019-05-16T05:51:20.700Z,71.72
2019-05-16T05:53:51.013Z,71.78
2019-05-16T05:56:19.830Z,71.78
2019-05-16T05:58:50.981Z,71.98
2019-05-16T06:01:20.621Z,72.38
2019-05-16T06:03:50.562Z,72.01
2019-05-16T06:06:21.020Z,71.43
2019-05-16T06:08:50.335Z,72.01
2019-05-16T06:11:20.467Z,72.10
2019-05-16T06:13:49.984Z,72.08
2019-05-16T06:16:20.490Z,71.76
2019-05-16T06:18:50.245Z,72.08
2019-05-16T06:21:20.315Z,72.39
2019-05-16T06:23:50.939Z,71.62
2019-05-16T06:26:20.410Z,71.81
2019-05-16T06:28:50.443Z,73.28
2019-05-16T06:31:22.163Z,74.00
2019-05-16T06:33:50.235Z,75.39
2019-05-16T06:36:20.429Z,75.01
2019-05-16T06:38:49.820Z,74.89
2019-05-16T06:41:19.993Z,77.03
2019-05-16T06:43:50.744Z,77.89
2019-05-16T06:46:20.112Z,77.28
2019-05-16T06:48:50.647Z,77.47
2019-05-16T06:51:20.056Z,76.96
2019-05-16T06:53:50.019Z,76.75
2019-05-16T06:56:20.025Z,78.40
2019-05-16T06:58:51.751Z,77.53
2019-05-16T07:01:20.836Z,76.29
2019-05-16T07:03:50.751Z,74.73
2019-05-16T07:06:45.441Z,74.93
2019-05-16T07:08:50.764Z,75.18
2019-05-16T07:11:20.225Z,75.50
2019-05-16T07:13:51.954Z,74.54
2019-05-16T07:16:20.604Z,74.34
2019-05-16T07:18:50.612Z,74.50
2019-05-16T07:21:20.141Z,74.88
2019-05-16T07:23:51.075Z,75.36
2019-05-16T07:26:20.540Z,77.31
2019-05-16T07:28:51.578Z,80.52
2019-05-16T07:31:22.276Z,78.36
2019-05-16T07:33:50.354Z,77.08
2019-05-16T07:36:20.891Z,76.89
2019-05-16T07:38:50.694Z,77.48
2019-05-16T07:41:20.447Z,77.14
2019-05-16T07:43:50.611Z,75.56
2019-05-16T07:46:20.738Z,73.44
2019-05-16T07:48:51.674Z,72.68
2019-05-16T07:51:20.556Z,73.50
2019-05-16T07:53:50.490Z,73.21
2019-05-16T07:56:20.448Z,74.37
2019-05-16T07:58:50.746Z,73.60
2019-05-16T08:01:20.093Z,72.08
2019-05-16T08:03:50.855Z,72.37
2019-05-16T08:06:20.129Z,70.04
2019-05-16T08:08:51.111Z,71.75
2019-05-16T08:11:23.245Z,71.04
2019-05-16T08:13:50.714Z,70.17
2019-05-16T08:16:20.784Z,68.77
2019-05-16T08:18:50.653Z,67.88
2019-05-16T08:21:20.220Z,68.21
2019-05-16T08:26:21.995Z,71.28
2019-05-16T08:28:50.544Z,68.23
2019-05-16T08:31:21.539Z,69.32
2019-05-16T08:33:54.190Z,67.25
2019-05-16T08:36:20.925Z,68.18
2019-05-16T08:38:51.554Z,68.12
2019-05-16T08:41:22.158Z,65.43
2019-05-16T08:43:53.430Z,64.91
2019-05-16T08:46:20.918Z,63.94
2019-05-16T08:48:53.856Z,64.29
2019-05-16T08:51:22.199Z,66.06
2019-05-16T08:53:50.587Z,66.20
2019-05-16T08:56:22.272Z,67.10
2019-05-16T08:58:53.981Z,67.86
2019-05-16T09:01:21.763Z,67.74
2019-05-16T09:03:52.140Z,67.93
2019-05-16T09:06:22.817Z,67.88
2019-05-16T09:08:50.380Z,69.07
2019-05-16T09:10:26.225Z,68.76
2019-05-16T09:11:33.980Z,71.44
2019-05-16T09:13:49.069Z,74.42
2019-05-16T09:16:18.400Z,72.67
2019-05-16T09:18:47.019Z,71.85
2019-05-16T09:21:18.291Z,71.05
2019-05-16T09:23:46.963Z,68.92
2019-05-16T09:26:18.966Z,67.71
2019-05-16T09:28:48.229Z,66.25
2019-05-16T09:31:17.899Z,66.11
2019-05-16T09:33:47.369Z,66.28
2019-05-16T09:36:17.410Z,68.29
2019-05-16T09:38:48.564Z,67.31
2019-05-16T09:41:16.981Z,67.71
2019-05-16T09:43:48.551Z,67.26
2019-05-16T09:46:17.195Z,65.62
2019-05-16T09:48:47.820Z,65.12
2019-05-16T09:51:17.266Z,65.44
2019-05-16T09:53:47.180Z,64.42
2019-05-16T09:56:16.862Z,67.44
2019-05-16T09:58:46.689Z,64.91
2019-05-16T10:01:17.403Z,64.19
2019-05-16T10:03:47.734Z,64.96
2019-05-16T10:06:19.172Z,63.76
2019-05-16T10:08:46.531Z,63.94
2019-05-16T10:11:17.992Z,68.99
2019-05-16T10:13:47.099Z,68.80
2019-05-16T10:16:16.725Z,67.51
2019-05-16T10:18:47.611Z,66.34
2019-05-16T10:21:20.325Z,65.15
2019-05-16T10:23:46.997Z,64.51
2019-05-16T10:26:17.259Z,64.34
2019-05-16T10:28:46.800Z,63.85
2019-05-16T10:31:17.781Z,62.73
2019-05-16T10:33:47.795Z,62.58
2019-05-16T10:36:17.326Z,63.22
2019-05-16T10:38:48.442Z,62.75
2019-05-16T10:41:16.560Z,63.47
2019-05-16T10:43:47.296Z,63.16
2019-05-16T10:46:17.640Z,63.24
2019-05-16T10:48:46.936Z,64.02
2019-05-16T10:51:16.961Z,63.43
2019-05-16T10:54:02.612Z,63.34
2019-05-16T10:56:16.024Z,62.40
2019-05-16T10:59:04.927Z,62.45
2019-05-16T11:01:27.128Z,62.12
2019-05-16T11:03:48.824Z,62.23
2019-05-16T11:06:25.368Z,62.04
2019-05-16T11:08:46.559Z,63.12
2019-05-16T11:11:19.673Z,62.43
2019-05-16T11:13:47.199Z,62.81
2019-05-16T11:16:17.470Z,62.04
2019-05-16T11:18:46.080Z,64.73
2019-05-16T11:21:19.022Z,66.26
2019-05-16T11:23:46.955Z,65.42
2019-05-16T11:26:15.018Z,64.59
2019-05-16T11:28:43.501Z,66.48
2019-05-16T11:31:12.048Z,69.97
2019-05-16T11:33:40.510Z,72.22
2019-05-16T11:36:12.561Z,68.68
2019-05-16T11:38:39.298Z,71.05
2019-05-16T11:41:07.839Z,71.00
2019-05-16T11:43:36.752Z,69.63
2019-05-16T11:46:05.511Z,68.97
2019-05-16T11:48:34.176Z,68.23
2019-05-16T11:51:02.651Z,69.18
2019-05-16T11:53:31.270Z,70.44
2019-05-16T11:56:01.817Z,66.43
2019-05-16T11:58:30.331Z,67.29
2019-05-16T12:00:58.824Z,67.39
2019-05-16T12:03:28.267Z,65.93
2019-05-16T12:05:57.987Z,69.30
2019-05-16T12:08:26.670Z,66.99
2019-05-16T12:10:55.195Z,64.75
2019-05-16T12:13:28.553Z,61.49
2019-05-16T12:15:56.386Z,59.33
2019-05-16T12:18:26.387Z,65.63
2019-05-16T12:20:56.439Z,67.15
2019-05-16T12:23:27.349Z,68.10
2019-05-16T12:25:56.596Z,67.69
2019-05-16T12:28:27.223Z,67.18
2019-05-16T12:30:56.335Z,65.57
2019-05-16T12:33:27.496Z,64.30
2019-05-16T12:35:57.547Z,65.70
2019-05-16T12:38:27.651Z,66.01
2019-05-16T12:40:56.558Z,66.78
2019-05-16T12:43:43.701Z,67.94
2019-05-16T12:45:56.966Z,68.69
2019-05-16T12:48:25.641Z,69.18
2019-05-16T12:50:54.155Z,68.55
2019-05-16T12:53:23.501Z,69.86
2019-05-16T12:55:52.864Z,69.52
2019-05-16T12:58:26.061Z,69.70
2019-05-16T13:00:57.563Z,68.96
2019-05-16T13:03:21.822Z,68.72
2019-05-16T13:05:50.355Z,68.38
2019-05-16T13:08:18.842Z,66.32
2019-05-16T13:10:47.379Z,63.89
2019-05-16T13:13:17.713Z,64.17
2019-05-16T13:15:47.557Z,66.09
2019-05-16T13:18:17.020Z,66.17
2019-05-16T13:20:46.809Z,67.03
2019-05-16T13:23:18.115Z,67.26
2019-05-16T13:25:48.135Z,67.40
2019-05-16T13:28:16.080Z,67.30
2019-05-16T13:30:46.943Z,67.88
2019-05-16T13:33:17.521Z,66.51
2019-05-16T13:35:47.239Z,68.41
2019-05-16T13:38:17.415Z,67.61
2019-05-16T13:40:45.671Z,67.47
2019-05-16T13:43:14.225Z,65.49
2019-05-16T13:45:43.091Z,64.45
2019-05-16T13:48:11.579Z,67.80
2019-05-16T13:50:40.107Z,69.45
2019-05-16T13:53:08.575Z,68.08
2019-05-16T13:55:37.743Z,67.00
2019-05-16T13:58:07.753Z,65.28
2019-05-16T14:00:37.634Z,64.77
2019-05-16T14:03:07.477Z,64.44
2019-05-16T14:05:38.029Z,65.45
2019-05-16T14:08:06.985Z,63.55
2019-05-16T14:10:37.647Z,65.60
2019-05-16T14:13:07.583Z,67.04
2019-05-16T14:15:36.938Z,64.58
2019-05-16T14:18:07.833Z,65.09
2019-05-16T14:20:37.828Z,65.22
2019-05-16T14:23:08.628Z,64.98
2019-05-16T14:25:37.983Z,65.74
2019-05-16T14:28:07.701Z,66.02
2019-05-16T14:30:37.301Z,64.61
2019-05-16T14:33:13.209Z,65.18
2019-05-16T14:35:37.727Z,64.55
2019-05-16T14:38:06.484Z,64.35
2019-05-16T14:40:37.393Z,63.74
2019-05-16T14:43:08.351Z,62.87
2019-05-16T14:45:37.235Z,64.66
2019-05-16T14:48:07.651Z,62.87
2019-05-16T14:50:37.531Z,63.66
2019-05-16T14:53:07.426Z,63.22
2019-05-16T14:55:38.060Z,64.63
2019-05-16T14:58:07.484Z,65.30
2019-05-16T15:00:38.434Z,66.71
2019-05-16T15:03:08.222Z,66.36
2019-05-16T15:05:42.736Z,67.66
2019-05-16T15:08:08.136Z,67.49
2019-05-16T15:10:37.741Z,66.81
2019-05-16T15:13:07.915Z,67.29
2019-05-16T15:15:37.594Z,67.77
2019-05-16T15:18:08.123Z,66.37
2019-05-16T15:20:36.987Z,65.91
2019-05-16T15:23:07.723Z,65.00
2019-05-16T15:25:37.443Z,66.68
2019-05-16T15:28:07.581Z,66.86
2019-05-16T15:30:39.063Z,66.85
2019-05-16T15:33:08.482Z,65.88
2019-05-16T15:35:38.069Z,65.44
2019-05-16T15:38:07.779Z,63.93
2019-05-16T15:40:37.599Z,62.00
2019-05-16T15:43:07.816Z,61.98
2019-05-16T15:45:44.231Z,61.44
2019-05-16T15:48:12.491Z,62.81
2019-05-16T15:50:41.619Z,63.82
2019-05-16T15:53:10.282Z,62.62
2019-05-16T15:55:38.904Z,60.77
2019-05-16T15:58:10.383Z,60.56
2019-05-16T16:00:41.174Z,61.04
2019-05-16T16:03:09.710Z,59.59
2019-05-16T16:05:38.207Z,59.00
2019-05-16T16:08:07.073Z,58.70
2019-05-16T16:10:40.244Z,59.94
2019-05-16T16:13:09.172Z,59.99
2019-05-16T16:15:50.263Z,59.75
2019-05-16T16:18:09.305Z,59.22
2019-05-16T16:20:37.941Z,60.41
2019-05-16T16:23:07.113Z,61.08
2019-05-16T16:25:35.701Z,62.41
2019-05-16T16:28:07.357Z,61.09
2019-05-16T16:30:37.386Z,60.63
2019-05-16T16:33:18.976Z,63.41
2019-05-16T16:35:37.894Z,64.38
2019-05-16T16:38:07.153Z,63.41
2019-05-16T16:40:37.471Z,62.65
2019-05-16T16:43:07.954Z,60.25
2019-05-16T16:45:36.372Z,62.20
2019-05-16T16:48:07.643Z,60.38
2019-05-16T16:50:37.077Z,59.84
2019-05-16T16:53:07.176Z,61.20
2019-05-16T16:55:37.034Z,64.32
2019-05-16T16:58:09.268Z,65.53
2019-05-16T17:00:37.882Z,65.13
2019-05-16T17:03:10.111Z,65.16
2019-05-16T17:05:37.177Z,64.25
2019-05-16T17:08:07.659Z,61.30
2019-05-16T17:10:38.062Z,62.38
2019-05-16T17:13:07.133Z,60.58
2019-05-16T17:15:36.784Z,61.78
2019-05-16T17:18:07.107Z,60.89
2019-05-16T17:20:37.179Z,60.77
2019-05-16T17:23:06.934Z,60.49
2019-05-16T17:25:36.635Z,61.05
2019-05-16T17:28:06.976Z,62.25
2019-05-16T17:30:36.919Z,63.49
2019-05-16T17:33:07.771Z,64.77
2019-05-16T17:35:38.506Z,65.73
2019-05-16T17:38:06.910Z,65.15
2019-05-16T17:40:37.876Z,63.00
2019-05-16T17:43:07.258Z,62.55
2019-05-16T17:45:37.550Z,62.55
2019-05-16T17:48:06.845Z,63.05
2019-05-16T17:50:37.373Z,62.50
2019-05-16T17:53:07.286Z,62.26
2019-05-16T17:55:36.861Z,61.96
2019-05-16T17:58:08.735Z,61.99
2019-05-16T18:00:36.427Z,62.06
2019-05-16T18:03:06.668Z,61.95
2019-05-16T18:05:37.161Z,62.44
2019-05-16T18:08:07.404Z,62.44
2019-05-16T18:10:36.503Z,62.77
2019-05-16T18:13:07.711Z,63.43
2019-05-16T18:15:36.663Z,63.83
2019-05-16T18:18:07.080Z,63.49
2019-05-16T18:20:37.233Z,63.82
2019-05-16T18:23:07.111Z,64.53
2019-05-16T18:25:36.436Z,64.44
2019-05-16T18:28:07.740Z,63.98
2019-05-16T18:30:36.756Z,64.33
2019-05-16T18:33:07.374Z,64.61
2019-05-16T18:35:37.020Z,64.71
2019-05-16T18:38:07.257Z,64.53
2019-05-16T18:40:36.705Z,64.54
2019-05-16T18:43:08.400Z,65.25
2019-05-16T18:45:36.691Z,65.51
2019-05-16T18:48:07.372Z,67.38
2019-05-16T18:50:37.568Z,67.04
2019-05-16T18:53:07.284Z,67.83
2019-05-16T18:55:37.109Z,67.91
2019-05-16T18:58:08.709Z,67.52
2019-05-16T19:00:37.509Z,68.44
2019-05-16T19:03:07.669Z,67.70
2019-05-16T19:05:37.333Z,67.98
2019-05-16T19:08:07.455Z,69.65
2019-05-16T19:10:36.801Z,72.08
2019-05-16T19:13:08.187Z,73.97
2019-05-16T19:15:37.451Z,74.45
2019-05-16T19:18:07.076Z,74.93
2019-05-16T19:20:37.504Z,73.04
2019-05-16T19:23:07.503Z,71.98
2019-05-16T19:25:36.426Z,71.49
2019-05-16T19:28:09.380Z,69.90
2019-05-16T19:30:38.019Z,70.23
2019-05-16T19:33:07.215Z,71.49
2019-05-16T19:35:39.950Z,74.26
2019-05-16T19:38:10.678Z,72.61
2019-05-16T19:40:42.284Z,71.83
2019-05-16T19:43:10.916Z,72.31
2019-05-16T19:45:43.667Z,71.22
2019-05-16T19:48:12.170Z,70.91
2019-05-16T19:50:40.772Z,71.10
2019-05-16T19:53:09.307Z,73.04
2019-05-16T19:55:37.794Z,72.42
2019-05-16T19:58:07.071Z,71.45
2019-05-16T20:00:37.611Z,71.05
2019-05-16T20:03:07.693Z,70.49
2019-05-16T20:05:37.551Z,71.05
2019-05-16T20:08:06.913Z,72.10
2019-05-16T20:10:36.601Z,71.41
2019-05-16T20:13:07.770Z,70.56
2019-05-16T20:15:36.566Z,72.57
2019-05-16T20:18:07.800Z,72.89
2019-05-16T20:20:37.210Z,73.10
2019-05-16T20:23:06.436Z,71.08
2019-05-16T20:25:36.658Z,69.62
2019-05-16T20:28:08.613Z,71.40
2019-05-16T20:30:37.183Z,70.55
2019-05-16T20:33:07.002Z,71.64
2019-05-16T20:35:37.584Z,70.49
2019-05-16T20:38:06.899Z,70.01
2019-05-16T20:40:37.548Z,72.44
2019-05-16T20:43:07.698Z,72.28
2019-05-16T20:45:39.577Z,73.04
2019-05-16T20:48:12.100Z,71.97
2019-05-16T20:50:37.082Z,71.30
2019-05-16T20:53:07.287Z,69.95
2019-05-16T20:55:37.706Z,69.90
2019-05-16T20:58:07.630Z,70.33
2019-05-16T21:00:37.749Z,71.23
2019-05-16T21:03:07.266Z,71.10
2019-05-16T21:05:38.158Z,71.43
2019-05-16T21:08:06.574Z,73.84
2019-05-16T21:10:35.320Z,75.64
2019-05-16T21:13:07.147Z,73.10
2019-05-16T21:15:37.245Z,72.99
2019-05-16T21:18:07.538Z,73.33
2019-05-16T21:20:38.741Z,74.47
2019-05-16T21:23:07.291Z,75.65
2019-05-16T21:25:37.161Z,75.79
2019-05-16T21:28:07.911Z,75.14
2019-05-16T21:30:36.811Z,74.73
2019-05-16T21:33:05.463Z,73.42
2019-05-16T21:35:36.294Z,74.91
2019-05-16T21:38:08.657Z,75.66
2019-05-16T21:40:37.147Z,75.41
2019-05-16T21:43:07.561Z,75.37
2019-05-16T21:45:37.194Z,75.01
2019-05-16T21:48:07.459Z,76.51
2019-05-16T21:50:36.864Z,74.45
2019-05-16T21:53:07.244Z,75.24
2019-05-16T21:55:36.861Z,74.37
2019-05-16T21:58:05.585Z,76.85
2019-05-16T22:00:38.766Z,75.58
2019-05-16T22:03:07.914Z,74.74
2019-05-16T22:05:37.041Z,73.89
2019-05-16T22:08:07.384Z,74.39
2019-05-16T22:10:37.338Z,73.11
2019-05-16T22:13:07.739Z,73.41
2019-05-16T22:15:36.836Z,73.41
2019-05-16T22:18:07.210Z,71.99
2019-05-16T22:20:35.767Z,73.26
2019-05-16T22:23:07.047Z,70.57
2019-05-16T22:25:35.356Z,70.28
2019-05-16T22:28:06.976Z,68.98
2019-05-16T22:30:36.409Z,67.66
2019-05-16T22:33:08.847Z,67.34
2019-05-16T22:35:37.360Z,67.43
2019-05-16T22:38:06.524Z,66.77
2019-05-16T22:40:37.302Z,65.98
2019-05-16T22:43:07.229Z,66.52
2019-05-16T22:45:37.405Z,66.78
2019-05-16T22:48:07.082Z,66.72
2019-05-16T22:50:36.621Z,66.84
2019-05-16T22:53:06.368Z,66.79
2019-05-16T22:55:37.167Z,66.54
2019-05-16T22:58:07.388Z,66.68
2019-05-16T23:00:39.023Z,66.57
2019-05-16T23:03:06.761Z,66.65
2019-05-16T23:05:36.980Z,66.81
2019-05-16T23:08:09.588Z,67.10
2019-05-16T23:10:36.885Z,66.92
2019-05-16T23:13:06.854Z,66.55
2019-05-16T23:15:35.449Z,66.55
2019-05-16T23:18:06.938Z,66.87
2019-05-16T23:20:36.977Z,66.48
2019-05-16T23:23:07.243Z,66.48
2019-05-16T23:25:37.126Z,66.68
2019-05-16T23:28:07.618Z,66.48
2019-05-16T23:30:36.612Z,66.85
2019-05-16T23:33:07.107Z,67.41
2019-05-16T23:35:37.564Z,67.11
2019-05-16T23:38:18.637Z,67.44
2019-05-16T23:40:37.377Z,67.20
2019-05-16T23:43:07.584Z,67.27
2019-05-16T23:45:37.520Z,67.31
2019-05-16T23:48:10.345Z,67.42
2019-05-16T23:50:36.825Z,67.66
2019-05-16T23:53:07.267Z,67.86
2019-05-16T23:55:37.300Z,67.05
2019-05-16T23:58:06.942Z,67.53
